sensor_id;sensor_type;location;lat;lon;timestamp;P1;durP1;ratioP1;P2;durP2;ratioP2
6475;SDS011;3271;51.910;5.840;2023-11-22T00:01:59;8.32;;;7.13;;
6475;SDS011;3271;51.910;5.840;2023-11-22T00:04:25;8.82;;;6.35;;
6475;SDS011;3271;51.910;5.840;2023-11-22T00:06:51;8.68;;;7.07;;
6475;SDS011;3271;51.910;5.840;2023-11-22T00:09:17;7.90;;;7.10;;
6475;SDS011;3271;51.910;5.840;2023-11-22T00:11:47;7.90;;;7.10;;
6475;SDS011;3271;51.910;5.840;2023-11-22T00:14:13;7.95;;;7.15;;
6475;SDS011;3271;51.910;5.840;2023-11-22T00:16:39;8.57;;;7.75;;
6475;SDS011;3271;51.910;5.840;2023-11-22T00:19:05;7.72;;;6.93;;
6475;SDS011;3271;51.910;5.840;2023-11-22T00:21:31;7.45;;;6.55;;
6475;SDS011;3271;51.910;5.840;2023-11-22T00:23:57;7.45;;;6.47;;
6475;SDS011;3271;51.910;5.840;2023-11-22T00:26:23;7.00;;;6.25;;
6475;SDS011;3271;51.910;5.840;2023-11-22T00:28:49;7.03;;;6.35;;
6475;SDS011;3271;51.910;5.840;2023-11-22T00:31:18;7.53;;;6.72;;
6475;SDS011;3271;51.910;5.840;2023-11-22T00:33:44;7.80;;;6.85;;
6475;SDS011;3271;51.910;5.840;2023-11-22T00:36:11;6.97;;;6.38;;
6475;SDS011;3271;51.910;5.840;2023-11-22T00:38:37;6.38;;;5.50;;
6475;SDS011;3271;51.910;5.840;2023-11-22T00:41:04;6.93;;;6.22;;
6475;SDS011;3271;51.910;5.840;2023-11-22T00:43:32;7.15;;;6.43;;
6475;SDS011;3271;51.910;5.840;2023-11-22T00:45:58;7.65;;;6.40;;
6475;SDS011;3271;51.910;5.840;2023-11-22T00:48:24;6.72;;;6.13;;
6475;SDS011;3271;51.910;5.840;2023-11-22T00:50:50;7.80;;;6.50;;
6475;SDS011;3271;51.910;5.840;2023-11-22T00:53:16;6.82;;;6.10;;
6475;SDS011;3271;51.910;5.840;2023-11-22T00:55:42;7.22;;;6.53;;
6475;SDS011;3271;51.910;5.840;2023-11-22T00:58:08;6.70;;;5.95;;
6475;SDS011;3271;51.910;5.840;2023-11-22T01:00:34;6.93;;;6.10;;
6475;SDS011;3271;51.910;5.840;2023-11-22T01:03:00;8.68;;;7.18;;
6475;SDS011;3271;51.910;5.840;2023-11-22T01:05:26;7.05;;;6.38;;
6475;SDS011;3271;51.910;5.840;2023-11-22T01:07:51;7.47;;;6.65;;
6475;SDS011;3271;51.910;5.840;2023-11-22T01:10:17;8.23;;;6.57;;
6475;SDS011;3271;51.910;5.840;2023-11-22T01:12:43;6.20;;;5.68;;
6475;SDS011;3271;51.910;5.840;2023-11-22T01:15:09;6.95;;;6.28;;
6475;SDS011;3271;51.910;5.840;2023-11-22T01:17:35;7.55;;;6.53;;
6475;SDS011;3271;51.910;5.840;2023-11-22T01:20:02;6.85;;;6.15;;
6475;SDS011;3271;51.910;5.840;2023-11-22T01:22:28;7.30;;;6.55;;
6475;SDS011;3271;51.910;5.840;2023-11-22T01:24:54;7.03;;;6.07;;
6475;SDS011;3271;51.910;5.840;2023-11-22T01:27:20;7.10;;;6.40;;
6475;SDS011;3271;51.910;5.840;2023-11-22T01:29:46;6.18;;;5.43;;
6475;SDS011;3271;51.910;5.840;2023-11-22T01:32:12;7.80;;;6.72;;
6475;SDS011;3271;51.910;5.840;2023-11-22T01:34:38;6.50;;;5.88;;
6475;SDS011;3271;51.910;5.840;2023-11-22T01:37:04;6.32;;;5.60;;
6475;SDS011;3271;51.910;5.840;2023-11-22T01:39:30;6.80;;;6.20;;
6475;SDS011;3271;51.910;5.840;2023-11-22T01:41:56;6.20;;;5.60;;
6475;SDS011;3271;51.910;5.840;2023-11-22T01:44:22;6.70;;;6.00;;
6475;SDS011;3271;51.910;5.840;2023-11-22T01:46:48;6.22;;;5.63;;
6475;SDS011;3271;51.910;5.840;2023-11-22T01:49:15;6.25;;;5.35;;
6475;SDS011;3271;51.910;5.840;2023-11-22T01:51:41;6.18;;;5.57;;
6475;SDS011;3271;51.910;5.840;2023-11-22T01:54:08;6.75;;;5.63;;
6475;SDS011;3271;51.910;5.840;2023-11-22T01:56:35;5.97;;;5.35;;
6475;SDS011;3271;51.910;5.840;2023-11-22T01:59:02;6.60;;;5.90;;
6475;SDS011;3271;51.910;5.840;2023-11-22T02:01:29;6.13;;;5.53;;
6475;SDS011;3271;51.910;5.840;2023-11-22T02:03:56;7.97;;;6.38;;
6475;SDS011;3271;51.910;5.840;2023-11-22T02:06:22;6.65;;;6.05;;
6475;SDS011;3271;51.910;5.840;2023-11-22T02:08:48;6.15;;;5.55;;
6475;SDS011;3271;51.910;5.840;2023-11-22T02:11:17;7.22;;;6.13;;
6475;SDS011;3271;51.910;5.840;2023-11-22T02:13:47;7.25;;;5.55;;
6475;SDS011;3271;51.910;5.840;2023-11-22T02:16:13;6.05;;;5.45;;
6475;SDS011;3271;51.910;5.840;2023-11-22T02:18:39;6.82;;;5.60;;
6475;SDS011;3271;51.910;5.840;2023-11-22T02:21:07;6.10;;;5.50;;
6475;SDS011;3271;51.910;5.840;2023-11-22T02:23:33;6.13;;;5.38;;
6475;SDS011;3271;51.910;5.840;2023-11-22T02:25:59;6.75;;;5.95;;
6475;SDS011;3271;51.910;5.840;2023-11-22T02:28:25;6.18;;;5.57;;
6475;SDS011;3271;51.910;5.840;2023-11-22T02:30:51;5.97;;;5.38;;
6475;SDS011;3271;51.910;5.840;2023-11-22T02:33:17;6.18;;;5.32;;
6475;SDS011;3271;51.910;5.840;2023-11-22T02:35:44;7.75;;;5.70;;
6475;SDS011;3271;51.910;5.840;2023-11-22T02:38:09;7.03;;;5.97;;
6475;SDS011;3271;51.910;5.840;2023-11-22T02:40:35;6.47;;;5.88;;
6475;SDS011;3271;51.910;5.840;2023-11-22T02:43:01;7.43;;;6.18;;
6475;SDS011;3271;51.910;5.840;2023-11-22T02:45:32;8.20;;;6.38;;
6475;SDS011;3271;51.910;5.840;2023-11-22T02:47:58;6.47;;;5.80;;
6475;SDS011;3271;51.910;5.840;2023-11-22T02:50:26;6.43;;;5.82;;
6475;SDS011;3271;51.910;5.840;2023-11-22T02:52:52;8.30;;;6.03;;
6475;SDS011;3271;51.910;5.840;2023-11-22T02:55:18;7.93;;;6.47;;
6475;SDS011;3271;51.910;5.840;2023-11-22T02:57:44;7.72;;;6.30;;
6475;SDS011;3271;51.910;5.840;2023-11-22T03:00:11;7.07;;;6.38;;
6475;SDS011;3271;51.910;5.840;2023-11-22T03:02:38;7.45;;;5.72;;
6475;SDS011;3271;51.910;5.840;2023-11-22T03:05:05;7.10;;;6.45;;
6475;SDS011;3271;51.910;5.840;2023-11-22T03:07:31;6.78;;;6.07;;
6475;SDS011;3271;51.910;5.840;2023-11-22T03:09:57;6.68;;;5.95;;
6475;SDS011;3271;51.910;5.840;2023-11-22T03:12:25;6.65;;;5.60;;
6475;SDS011;3271;51.910;5.840;2023-11-22T03:14:51;6.88;;;6.07;;
6475;SDS011;3271;51.910;5.840;2023-11-22T03:17:19;6.15;;;5.55;;
6475;SDS011;3271;51.910;5.840;2023-11-22T03:19:44;6.43;;;5.10;;
6475;SDS011;3271;51.910;5.840;2023-11-22T03:22:11;5.75;;;5.25;;
6475;SDS011;3271;51.910;5.840;2023-11-22T03:24:37;6.97;;;6.13;;
6475;SDS011;3271;51.910;5.840;2023-11-22T03:27:03;6.40;;;5.80;;
6475;SDS011;3271;51.910;5.840;2023-11-22T03:29:30;6.10;;;5.47;;
6475;SDS011;3271;51.910;5.840;2023-11-22T03:31:57;6.28;;;5.43;;
6475;SDS011;3271;51.910;5.840;2023-11-22T03:34:23;5.57;;;5.07;;
6475;SDS011;3271;51.910;5.840;2023-11-22T03:36:49;6.20;;;5.70;;
6475;SDS011;3271;51.910;5.840;2023-11-22T03:39:15;5.90;;;5.35;;
6475;SDS011;3271;51.910;5.840;2023-11-22T03:41:42;6.75;;;6.05;;
6475;SDS011;3271;51.910;5.840;2023-11-22T03:44:08;6.10;;;5.50;;
6475;SDS011;3271;51.910;5.840;2023-11-22T03:46:37;6.30;;;5.70;;
6475;SDS011;3271;51.910;5.840;2023-11-22T03:49:04;6.22;;;5.47;;
6475;SDS011;3271;51.910;5.840;2023-11-22T03:51:31;6.25;;;5.45;;
6475;SDS011;3271;51.910;5.840;2023-11-22T03:53:57;5.50;;;5.00;;
6475;SDS011;3271;51.910;5.840;2023-11-22T03:56:23;6.53;;;5.45;;
6475;SDS011;3271;51.910;5.840;2023-11-22T03:58:49;6.45;;;5.85;;
6475;SDS011;3271;51.910;5.840;2023-11-22T04:01:15;6.47;;;5.55;;
6475;SDS011;3271;51.910;5.840;2023-11-22T04:03:41;7.13;;;5.75;;
6475;SDS011;3271;51.910;5.840;2023-11-22T04:06:07;6.88;;;5.22;;
6475;SDS011;3271;51.910;5.840;2023-11-22T04:08:33;6.90;;;6.30;;
6475;SDS011;3271;51.910;5.840;2023-11-22T04:10:59;6.50;;;5.90;;
6475;SDS011;3271;51.910;5.840;2023-11-22T04:13:26;7.13;;;5.75;;
6475;SDS011;3271;51.910;5.840;2023-11-22T04:15:52;5.68;;;5.07;;
6475;SDS011;3271;51.910;5.840;2023-11-22T04:18:18;5.95;;;5.40;;
6475;SDS011;3271;51.910;5.840;2023-11-22T04:20:44;6.13;;;5.53;;
6475;SDS011;3271;51.910;5.840;2023-11-22T04:23:11;6.60;;;5.60;;
6475;SDS011;3271;51.910;5.840;2023-11-22T04:25:38;5.65;;;5.05;;
6475;SDS011;3271;51.910;5.840;2023-11-22T04:28:06;6.38;;;5.70;;
6475;SDS011;3271;51.910;5.840;2023-11-22T04:30:33;6.38;;;5.70;;
6475;SDS011;3271;51.910;5.840;2023-11-22T04:32:59;6.28;;;5.65;;
6475;SDS011;3271;51.910;5.840;2023-11-22T04:35:26;6.30;;;5.70;;
6475;SDS011;3271;51.910;5.840;2023-11-22T04:37:52;6.22;;;5.63;;
6475;SDS011;3271;51.910;5.840;2023-11-22T04:40:20;5.45;;;4.93;;
6475;SDS011;3271;51.910;5.840;2023-11-22T04:42:46;5.82;;;5.22;;
6475;SDS011;3271;51.910;5.840;2023-11-22T04:45:13;6.18;;;5.55;;
6475;SDS011;3271;51.910;5.840;2023-11-22T04:47:39;6.38;;;5.50;;
6475;SDS011;3271;51.910;5.840;2023-11-22T04:50:05;6.63;;;6.03;;
6475;SDS011;3271;51.910;5.840;2023-11-22T04:52:32;6.07;;;5.47;;
6475;SDS011;3271;51.910;5.840;2023-11-22T04:54:58;5.85;;;5.25;;
6475;SDS011;3271;51.910;5.840;2023-11-22T04:57:23;6.07;;;5.47;;
6475;SDS011;3271;51.910;5.840;2023-11-22T04:59:50;5.65;;;5.10;;
6475;SDS011;3271;51.910;5.840;2023-11-22T05:02:16;5.75;;;5.15;;
6475;SDS011;3271;51.910;5.840;2023-11-22T05:04:42;6.32;;;5.70;;
6475;SDS011;3271;51.910;5.840;2023-11-22T05:07:09;5.63;;;4.97;;
6475;SDS011;3271;51.910;5.840;2023-11-22T05:09:34;5.90;;;5.05;;
6475;SDS011;3271;51.910;5.840;2023-11-22T05:12:00;5.35;;;4.85;;
6475;SDS011;3271;51.910;5.840;2023-11-22T05:14:26;8.45;;;5.03;;
6475;SDS011;3271;51.910;5.840;2023-11-22T05:16:52;6.10;;;5.50;;
6475;SDS011;3271;51.910;5.840;2023-11-22T05:19:18;6.38;;;5.82;;
6475;SDS011;3271;51.910;5.840;2023-11-22T05:21:44;6.65;;;5.95;;
6475;SDS011;3271;51.910;5.840;2023-11-22T05:24:10;6.65;;;5.93;;
6475;SDS011;3271;51.910;5.840;2023-11-22T05:26:36;6.65;;;5.55;;
6475;SDS011;3271;51.910;5.840;2023-11-22T05:29:02;6.88;;;5.85;;
6475;SDS011;3271;51.910;5.840;2023-11-22T05:31:30;6.65;;;5.85;;
6475;SDS011;3271;51.910;5.840;2023-11-22T05:33:55;5.20;;;4.70;;
6475;SDS011;3271;51.910;5.840;2023-11-22T05:36:21;6.50;;;5.82;;
6475;SDS011;3271;51.910;5.840;2023-11-22T05:38:47;6.80;;;5.57;;
6475;SDS011;3271;51.910;5.840;2023-11-22T05:41:14;6.97;;;5.75;;
6475;SDS011;3271;51.910;5.840;2023-11-22T05:43:40;6.70;;;5.90;;
6475;SDS011;3271;51.910;5.840;2023-11-22T05:46:07;8.55;;;6.20;;
6475;SDS011;3271;51.910;5.840;2023-11-22T05:48:33;6.65;;;5.90;;
6475;SDS011;3271;51.910;5.840;2023-11-22T05:51:00;6.50;;;5.90;;
6475;SDS011;3271;51.910;5.840;2023-11-22T05:53:26;6.55;;;5.78;;
6475;SDS011;3271;51.910;5.840;2023-11-22T05:55:52;6.50;;;5.80;;
6475;SDS011;3271;51.910;5.840;2023-11-22T05:58:18;6.25;;;5.63;;
6475;SDS011;3271;51.910;5.840;2023-11-22T06:00:47;6.93;;;5.75;;
6475;SDS011;3271;51.910;5.840;2023-11-22T06:03:13;7.00;;;5.57;;
6475;SDS011;3271;51.910;5.840;2023-11-22T06:05:39;6.50;;;5.90;;
6475;SDS011;3271;51.910;5.840;2023-11-22T06:08:05;6.57;;;5.55;;
6475;SDS011;3271;51.910;5.840;2023-11-22T06:10:31;6.18;;;5.57;;
6475;SDS011;3271;51.910;5.840;2023-11-22T06:12:58;5.70;;;5.25;;
6475;SDS011;3271;51.910;5.840;2023-11-22T06:15:24;5.82;;;5.32;;
6475;SDS011;3271;51.910;5.840;2023-11-22T06:17:50;6.03;;;5.45;;
6475;SDS011;3271;51.910;5.840;2023-11-22T06:20:16;6.00;;;5.40;;
6475;SDS011;3271;51.910;5.840;2023-11-22T06:22:42;6.55;;;5.90;;
6475;SDS011;3271;51.910;5.840;2023-11-22T06:25:09;6.63;;;5.97;;
6475;SDS011;3271;51.910;5.840;2023-11-22T06:27:38;6.72;;;6.03;;
6475;SDS011;3271;51.910;5.840;2023-11-22T06:30:05;6.88;;;6.07;;
6475;SDS011;3271;51.910;5.840;2023-11-22T06:32:31;6.88;;;5.75;;
6475;SDS011;3271;51.910;5.840;2023-11-22T06:34:59;5.68;;;5.13;;
6475;SDS011;3271;51.910;5.840;2023-11-22T06:37:25;6.25;;;5.65;;
6475;SDS011;3271;51.910;5.840;2023-11-22T06:39:51;6.95;;;6.25;;
6475;SDS011;3271;51.910;5.840;2023-11-22T06:42:17;6.00;;;5.43;;
6475;SDS011;3271;51.910;5.840;2023-11-22T06:44:47;6.05;;;5.45;;
6475;SDS011;3271;51.910;5.840;2023-11-22T06:47:13;6.43;;;5.70;;
6475;SDS011;3271;51.910;5.840;2023-11-22T06:49:39;6.90;;;5.53;;
6475;SDS011;3271;51.910;5.840;2023-11-22T06:52:05;6.15;;;5.55;;
6475;SDS011;3271;51.910;5.840;2023-11-22T06:54:31;7.22;;;5.38;;
6475;SDS011;3271;51.910;5.840;2023-11-22T06:56:57;7.07;;;5.78;;
6475;SDS011;3271;51.910;5.840;2023-11-22T06:59:23;7.45;;;5.80;;
6475;SDS011;3271;51.910;5.840;2023-11-22T07:01:49;7.40;;;5.90;;
6475;SDS011;3271;51.910;5.840;2023-11-22T07:04:14;7.70;;;6.40;;
6475;SDS011;3271;51.910;5.840;2023-11-22T07:06:40;11.27;;;8.02;;
6475;SDS011;3271;51.910;5.840;2023-11-22T07:09:09;7.63;;;6.03;;
6475;SDS011;3271;51.910;5.840;2023-11-22T07:11:35;6.47;;;5.78;;
6475;SDS011;3271;51.910;5.840;2023-11-22T07:14:02;7.20;;;5.88;;
6475;SDS011;3271;51.910;5.840;2023-11-22T07:16:34;7.97;;;6.43;;
6475;SDS011;3271;51.910;5.840;2023-11-22T07:19:00;6.65;;;5.72;;
6475;SDS011;3271;51.910;5.840;2023-11-22T07:21:31;7.97;;;6.97;;
6475;SDS011;3271;51.910;5.840;2023-11-22T07:23:57;6.57;;;5.97;;
6475;SDS011;3271;51.910;5.840;2023-11-22T07:26:26;8.05;;;6.60;;
6475;SDS011;3271;51.910;5.840;2023-11-22T07:28:53;7.13;;;6.43;;
6475;SDS011;3271;51.910;5.840;2023-11-22T07:31:19;7.05;;;6.38;;
6475;SDS011;3271;51.910;5.840;2023-11-22T07:33:46;6.63;;;6.03;;
6475;SDS011;3271;51.910;5.840;2023-11-22T07:36:12;7.32;;;6.40;;
6475;SDS011;3271;51.910;5.840;2023-11-22T07:38:41;7.22;;;6.20;;
6475;SDS011;3271;51.910;5.840;2023-11-22T07:41:07;8.02;;;6.35;;
6475;SDS011;3271;51.910;5.840;2023-11-22T07:43:33;8.93;;;6.93;;
6475;SDS011;3271;51.910;5.840;2023-11-22T07:46:04;8.00;;;6.47;;
6475;SDS011;3271;51.910;5.840;2023-11-22T07:48:30;8.43;;;7.15;;
6475;SDS011;3271;51.910;5.840;2023-11-22T07:50:55;7.70;;;6.90;;
6475;SDS011;3271;51.910;5.840;2023-11-22T07:53:21;9.90;;;7.68;;
6475;SDS011;3271;51.910;5.840;2023-11-22T07:55:47;11.52;;;7.57;;
6475;SDS011;3271;51.910;5.840;2023-11-22T07:58:13;9.82;;;7.63;;
6475;SDS011;3271;51.910;5.840;2023-11-22T08:00:40;10.57;;;8.02;;
6475;SDS011;3271;51.910;5.840;2023-11-22T08:03:07;9.52;;;8.10;;
6475;SDS011;3271;51.910;5.840;2023-11-22T08:05:34;9.70;;;7.80;;
6475;SDS011;3271;51.910;5.840;2023-11-22T08:08:02;7.90;;;6.93;;
6475;SDS011;3271;51.910;5.840;2023-11-22T08:10:31;9.55;;;8.27;;
6475;SDS011;3271;51.910;5.840;2023-11-22T08:12:57;12.10;;;7.90;;
6475;SDS011;3271;51.910;5.840;2023-11-22T08:15:23;8.73;;;7.82;;
6475;SDS011;3271;51.910;5.840;2023-11-22T08:17:49;8.90;;;8.00;;
6475;SDS011;3271;51.910;5.840;2023-11-22T08:20:15;9.50;;;8.25;;
6475;SDS011;3271;51.910;5.840;2023-11-22T08:22:44;9.70;;;8.02;;
6475;SDS011;3271;51.910;5.840;2023-11-22T08:25:11;11.95;;;7.95;;
6475;SDS011;3271;51.910;5.840;2023-11-22T08:27:38;9.77;;;8.23;;
6475;SDS011;3271;51.910;5.840;2023-11-22T08:30:04;8.80;;;7.13;;
6475;SDS011;3271;51.910;5.840;2023-11-22T08:32:31;7.57;;;6.78;;
6475;SDS011;3271;51.910;5.840;2023-11-22T08:34:57;7.68;;;6.97;;
6475;SDS011;3271;51.910;5.840;2023-11-22T08:37:24;12.25;;;7.80;;
6475;SDS011;3271;51.910;5.840;2023-11-22T08:39:50;8.55;;;7.60;;
6475;SDS011;3271;51.910;5.840;2023-11-22T08:42:16;8.93;;;8.02;;
6475;SDS011;3271;51.910;5.840;2023-11-22T08:44:43;8.95;;;8.05;;
6475;SDS011;3271;51.910;5.840;2023-11-22T08:47:09;10.50;;;8.48;;
6475;SDS011;3271;51.910;5.840;2023-11-22T08:49:34;10.27;;;8.27;;
6475;SDS011;3271;51.910;5.840;2023-11-22T08:52:00;8.93;;;8.02;;
6475;SDS011;3271;51.910;5.840;2023-11-22T08:54:28;7.22;;;6.38;;
6475;SDS011;3271;51.910;5.840;2023-11-22T08:56:54;9.35;;;8.38;;
6475;SDS011;3271;51.910;5.840;2023-11-22T08:59:25;8.43;;;7.63;;
6475;SDS011;3271;51.910;5.840;2023-11-22T09:01:51;9.48;;;8.52;;
6475;SDS011;3271;51.910;5.840;2023-11-22T09:04:17;10.23;;;8.77;;
6475;SDS011;3271;51.910;5.840;2023-11-22T09:06:43;8.85;;;7.85;;
6475;SDS011;3271;51.910;5.840;2023-11-22T09:09:09;8.68;;;7.75;;
6475;SDS011;3271;51.910;5.840;2023-11-22T09:11:40;8.65;;;7.75;;
6475;SDS011;3271;51.910;5.840;2023-11-22T09:14:06;8.98;;;8.07;;
6475;SDS011;3271;51.910;5.840;2023-11-22T09:16:35;10.02;;;7.65;;
6475;SDS011;3271;51.910;5.840;2023-11-22T09:19:02;9.35;;;7.75;;
6475;SDS011;3271;51.910;5.840;2023-11-22T09:21:28;9.07;;;7.93;;
6475;SDS011;3271;51.910;5.840;2023-11-22T09:23:54;9.20;;;8.30;;
6475;SDS011;3271;51.910;5.840;2023-11-22T09:26:20;9.02;;;8.13;;
6475;SDS011;3271;51.910;5.840;2023-11-22T09:28:46;9.30;;;8.40;;
6475;SDS011;3271;51.910;5.840;2023-11-22T09:31:12;10.07;;;9.07;;
6475;SDS011;3271;51.910;5.840;2023-11-22T09:33:42;10.90;;;8.05;;
6475;SDS011;3271;51.910;5.840;2023-11-22T09:36:08;10.80;;;8.68;;
6475;SDS011;3271;51.910;5.840;2023-11-22T09:38:35;8.95;;;7.72;;
6475;SDS011;3271;51.910;5.840;2023-11-22T09:41:02;7.15;;;6.45;;
6475;SDS011;3271;51.910;5.840;2023-11-22T09:43:28;8.38;;;7.47;;
6475;SDS011;3271;51.910;5.840;2023-11-22T09:45:54;9.00;;;8.10;;
6475;SDS011;3271;51.910;5.840;2023-11-22T09:48:21;9.82;;;8.68;;
6475;SDS011;3271;51.910;5.840;2023-11-22T09:53:16;9.70;;;8.80;;
6475;SDS011;3271;51.910;5.840;2023-11-22T09:55:46;9.48;;;8.40;;
6475;SDS011;3271;51.910;5.840;2023-11-22T09:58:12;9.85;;;8.45;;
6475;SDS011;3271;51.910;5.840;2023-11-22T10:00:39;9.20;;;8.10;;
6475;SDS011;3271;51.910;5.840;2023-11-22T10:03:06;7.63;;;6.85;;
6475;SDS011;3271;51.910;5.840;2023-11-22T10:05:32;6.72;;;6.07;;
6475;SDS011;3271;51.910;5.840;2023-11-22T10:07:58;7.18;;;6.47;;
6475;SDS011;3271;51.910;5.840;2023-11-22T10:10:25;10.38;;;9.15;;
6475;SDS011;3271;51.910;5.840;2023-11-22T10:12:55;7.75;;;7.00;;
6475;SDS011;3271;51.910;5.840;2023-11-22T10:15:21;11.20;;;8.15;;
6475;SDS011;3271;51.910;5.840;2023-11-22T10:17:54;8.57;;;7.75;;
6475;SDS011;3271;51.910;5.840;2023-11-22T10:20:24;9.77;;;8.43;;
6475;SDS011;3271;51.910;5.840;2023-11-22T10:22:50;8.55;;;7.75;;
6475;SDS011;3271;51.910;5.840;2023-11-22T10:25:17;10.07;;;9.02;;
6475;SDS011;3271;51.910;5.840;2023-11-22T10:27:44;9.95;;;8.88;;
6475;SDS011;3271;51.910;5.840;2023-11-22T10:30:10;9.52;;;8.57;;
6475;SDS011;3271;51.910;5.840;2023-11-22T10:32:37;10.90;;;9.77;;
6475;SDS011;3271;51.910;5.840;2023-11-22T10:35:06;11.07;;;9.13;;
6475;SDS011;3271;51.910;5.840;2023-11-22T10:37:32;11.45;;;9.55;;
6475;SDS011;3271;51.910;5.840;2023-11-22T10:39:59;8.82;;;7.97;;
6475;SDS011;3271;51.910;5.840;2023-11-22T10:42:25;10.57;;;9.48;;
6475;SDS011;3271;51.910;5.840;2023-11-22T10:44:54;9.70;;;8.07;;
6475;SDS011;3271;51.910;5.840;2023-11-22T10:47:23;9.02;;;7.78;;
6475;SDS011;3271;51.910;5.840;2023-11-22T10:49:50;8.40;;;7.53;;
6475;SDS011;3271;51.910;5.840;2023-11-22T10:52:16;8.88;;;7.97;;
6475;SDS011;3271;51.910;5.840;2023-11-22T10:54:44;11.90;;;8.55;;
6475;SDS011;3271;51.910;5.840;2023-11-22T10:57:16;10.00;;;9.00;;
6475;SDS011;3271;51.910;5.840;2023-11-22T10:59:45;10.50;;;8.50;;
6475;SDS011;3271;51.910;5.840;2023-11-22T11:02:16;10.70;;;8.35;;
6475;SDS011;3271;51.910;5.840;2023-11-22T11:04:46;9.18;;;8.20;;
6475;SDS011;3271;51.910;5.840;2023-11-22T11:07:13;10.02;;;9.02;;
6475;SDS011;3271;51.910;5.840;2023-11-22T11:09:40;10.93;;;9.57;;
6475;SDS011;3271;51.910;5.840;2023-11-22T11:12:06;11.10;;;9.70;;
6475;SDS011;3271;51.910;5.840;2023-11-22T11:14:32;10.95;;;9.30;;
6475;SDS011;3271;51.910;5.840;2023-11-22T11:16:59;10.15;;;8.77;;
6475;SDS011;3271;51.910;5.840;2023-11-22T11:19:25;11.50;;;10.30;;
6475;SDS011;3271;51.910;5.840;2023-11-22T11:21:52;14.57;;;11.43;;
6475;SDS011;3271;51.910;5.840;2023-11-22T11:24:19;12.55;;;11.25;;
6475;SDS011;3271;51.910;5.840;2023-11-22T11:26:47;12.90;;;11.35;;
6475;SDS011;3271;51.910;5.840;2023-11-22T11:29:33;13.75;;;12.35;;
6475;SDS011;3271;51.910;5.840;2023-11-22T11:32:02;11.63;;;10.43;;
6475;SDS011;3271;51.910;5.840;2023-11-22T11:34:28;13.35;;;11.20;;
6475;SDS011;3271;51.910;5.840;2023-11-22T11:36:54;11.95;;;10.57;;
6475;SDS011;3271;51.910;5.840;2023-11-22T11:39:24;13.40;;;11.20;;
6475;SDS011;3271;51.910;5.840;2023-11-22T11:41:51;12.48;;;10.75;;
6475;SDS011;3271;51.910;5.840;2023-11-22T11:44:17;13.93;;;11.60;;
6475;SDS011;3271;51.910;5.840;2023-11-22T11:46:44;13.80;;;11.77;;
6475;SDS011;3271;51.910;5.840;2023-11-22T11:49:11;13.98;;;11.50;;
6475;SDS011;3271;51.910;5.840;2023-11-22T11:51:41;13.82;;;11.77;;
6475;SDS011;3271;51.910;5.840;2023-11-22T11:54:07;14.52;;;11.63;;
6475;SDS011;3271;51.910;5.840;2023-11-22T11:56:34;16.55;;;12.63;;
6475;SDS011;3271;51.910;5.840;2023-11-22T11:59:00;13.23;;;10.82;;
6475;SDS011;3271;51.910;5.840;2023-11-22T12:01:27;14.45;;;12.13;;
6475;SDS011;3271;51.910;5.840;2023-11-22T12:03:57;12.02;;;9.70;;
6475;SDS011;3271;51.910;5.840;2023-11-22T12:06:23;13.48;;;11.50;;
6475;SDS011;3271;51.910;5.840;2023-11-22T12:08:49;13.77;;;11.32;;
6475;SDS011;3271;51.910;5.840;2023-11-22T12:11:15;15.15;;;12.10;;
6475;SDS011;3271;51.910;5.840;2023-11-22T12:13:42;17.52;;;13.48;;
6475;SDS011;3271;51.910;5.840;2023-11-22T12:16:13;14.00;;;11.93;;
6475;SDS011;3271;51.910;5.840;2023-11-22T12:18:48;15.80;;;12.43;;
6475;SDS011;3271;51.910;5.840;2023-11-22T12:21:15;16.27;;;12.15;;
6475;SDS011;3271;51.910;5.840;2023-11-22T12:23:42;14.60;;;12.20;;
6475;SDS011;3271;51.910;5.840;2023-11-22T12:26:12;16.63;;;12.65;;
6475;SDS011;3271;51.910;5.840;2023-11-22T12:28:38;18.75;;;13.45;;
6475;SDS011;3271;51.910;5.840;2023-11-22T12:31:12;18.98;;;13.85;;
6475;SDS011;3271;51.910;5.840;2023-11-22T12:33:38;15.73;;;12.45;;
6475;SDS011;3271;51.910;5.840;2023-11-22T12:36:04;15.40;;;12.65;;
6475;SDS011;3271;51.910;5.840;2023-11-22T12:38:31;19.98;;;14.05;;
6475;SDS011;3271;51.910;5.840;2023-11-22T12:40:57;15.27;;;12.55;;
6475;SDS011;3271;51.910;5.840;2023-11-22T12:43:23;14.63;;;12.55;;
6475;SDS011;3271;51.910;5.840;2023-11-22T12:45:59;15.07;;;11.68;;
6475;SDS011;3271;51.910;5.840;2023-11-22T12:48:25;16.25;;;12.63;;
6475;SDS011;3271;51.910;5.840;2023-11-22T12:50:54;15.60;;;11.90;;
6475;SDS011;3271;51.910;5.840;2023-11-22T12:53:20;16.38;;;12.05;;
6475;SDS011;3271;51.910;5.840;2023-11-22T12:55:50;15.82;;;11.98;;
6475;SDS011;3271;51.910;5.840;2023-11-22T12:58:17;17.23;;;13.32;;
6475;SDS011;3271;51.910;5.840;2023-11-22T13:00:43;16.23;;;13.10;;
6475;SDS011;3271;51.910;5.840;2023-11-22T13:03:09;16.38;;;11.90;;
6475;SDS011;3271;51.910;5.840;2023-11-22T13:05:39;17.67;;;13.73;;
6475;SDS011;3271;51.910;5.840;2023-11-22T13:08:07;18.90;;;13.43;;
6475;SDS011;3271;51.910;5.840;2023-11-22T13:10:35;18.05;;;14.35;;
6475;SDS011;3271;51.910;5.840;2023-11-22T13:13:01;17.55;;;13.68;;
6475;SDS011;3271;51.910;5.840;2023-11-22T13:15:27;16.90;;;13.57;;
6475;SDS011;3271;51.910;5.840;2023-11-22T13:17:55;17.75;;;13.27;;
6475;SDS011;3271;51.910;5.840;2023-11-22T13:20:22;17.33;;;14.02;;
6475;SDS011;3271;51.910;5.840;2023-11-22T13:22:51;16.73;;;13.68;;
6475;SDS011;3271;51.910;5.840;2023-11-22T13:25:17;19.23;;;13.52;;
6475;SDS011;3271;51.910;5.840;2023-11-22T13:27:47;17.95;;;12.98;;
6475;SDS011;3271;51.910;5.840;2023-11-22T13:30:14;19.60;;;14.30;;
6475;SDS011;3271;51.910;5.840;2023-11-22T13:32:40;17.23;;;13.25;;
6475;SDS011;3271;51.910;5.840;2023-11-22T13:35:08;18.58;;;13.88;;
6475;SDS011;3271;51.910;5.840;2023-11-22T13:37:39;20.63;;;15.07;;
6475;SDS011;3271;51.910;5.840;2023-11-22T13:40:09;20.55;;;15.15;;
6475;SDS011;3271;51.910;5.840;2023-11-22T13:42:40;19.27;;;13.68;;
6475;SDS011;3271;51.910;5.840;2023-11-22T13:45:06;20.02;;;14.50;;
6475;SDS011;3271;51.910;5.840;2023-11-22T13:47:32;20.30;;;15.00;;
6475;SDS011;3271;51.910;5.840;2023-11-22T13:50:01;20.33;;;13.73;;
6475;SDS011;3271;51.910;5.840;2023-11-22T13:52:28;21.08;;;14.57;;
6475;SDS011;3271;51.910;5.840;2023-11-22T13:54:54;19.70;;;14.20;;
6475;SDS011;3271;51.910;5.840;2023-11-22T13:57:22;22.05;;;14.90;;
6475;SDS011;3271;51.910;5.840;2023-11-22T13:59:48;21.70;;;16.80;;
6475;SDS011;3271;51.910;5.840;2023-11-22T14:02:14;23.98;;;16.50;;
6475;SDS011;3271;51.910;5.840;2023-11-22T14:04:41;25.80;;;16.40;;
6475;SDS011;3271;51.910;5.840;2023-11-22T14:07:07;21.98;;;15.60;;
6475;SDS011;3271;51.910;5.840;2023-11-22T14:09:33;20.50;;;14.88;;
6475;SDS011;3271;51.910;5.840;2023-11-22T14:12:01;21.77;;;16.02;;
6475;SDS011;3271;51.910;5.840;2023-11-22T14:14:27;22.30;;;15.05;;
6475;SDS011;3271;51.910;5.840;2023-11-22T14:16:53;25.75;;;17.10;;
6475;SDS011;3271;51.910;5.840;2023-11-22T14:19:19;22.40;;;17.02;;
6475;SDS011;3271;51.910;5.840;2023-11-22T14:21:45;24.92;;;16.40;;
6475;SDS011;3271;51.910;5.840;2023-11-22T14:24:11;23.98;;;16.95;;
6475;SDS011;3271;51.910;5.840;2023-11-22T14:26:37;24.80;;;17.00;;
6475;SDS011;3271;51.910;5.840;2023-11-22T14:29:03;22.83;;;15.90;;
6475;SDS011;3271;51.910;5.840;2023-11-22T14:31:30;24.35;;;16.85;;
6475;SDS011;3271;51.910;5.840;2023-11-22T14:33:57;22.48;;;15.95;;
6475;SDS011;3271;51.910;5.840;2023-11-22T14:36:23;23.42;;;16.48;;
6475;SDS011;3271;51.910;5.840;2023-11-22T14:38:51;23.52;;;15.85;;
6475;SDS011;3271;51.910;5.840;2023-11-22T14:41:21;24.13;;;16.17;;
6475;SDS011;3271;51.910;5.840;2023-11-22T14:43:47;22.05;;;16.40;;
6475;SDS011;3271;51.910;5.840;2023-11-22T14:46:13;23.42;;;15.23;;
6475;SDS011;3271;51.910;5.840;2023-11-22T14:48:39;24.70;;;15.27;;
6475;SDS011;3271;51.910;5.840;2023-11-22T14:51:05;25.08;;;16.83;;
6475;SDS011;3271;51.910;5.840;2023-11-22T14:53:34;22.35;;;15.52;;
6475;SDS011;3271;51.910;5.840;2023-11-22T14:55:59;26.23;;;16.67;;
6475;SDS011;3271;51.910;5.840;2023-11-22T14:58:27;25.25;;;17.90;;
6475;SDS011;3271;51.910;5.840;2023-11-22T15:00:54;21.73;;;15.50;;
6475;SDS011;3271;51.910;5.840;2023-11-22T15:03:22;28.20;;;17.98;;
6475;SDS011;3271;51.910;5.840;2023-11-22T15:05:49;25.45;;;16.13;;
6475;SDS011;3271;51.910;5.840;2023-11-22T15:08:15;25.58;;;17.63;;